SIA412 WIII-WPDL
Flight info
| Callsign | SIA412 |
|---|---|
| Flight time | N/A |
| Altitude | 41000 |
| Route | CA T3 ANY G461 SBR W34 AGUNG W43 MUBOT W42 MUBRA DCT JEMZE JEMZE4V |
| Aircraft | A359/H-SDE2E3GHIJ3J4J5LM1ORWXY/LB1D1 |
Departure
| Time | N/A |
|---|---|
| Airport | Soekarno-Hatta International Airport (WIII) |
Arrival
| Time | 2026-04-28 15:34 |
|---|---|
| Airport | Presidente Nicolau Lobato International Airport (WPDL) |
| Time | Latitude | Longitude | Altitude | Speed | Heading |
|---|---|---|---|---|---|
| 2026-04-28 15:33 | -8.54797 | 125.52446 | 29 ft | 0 kts | 168° |
| 2026-04-28 15:53 | -8.54791 | 125.52445 | 32 ft | 2 kts | 182° |
| 2026-04-28 15:53 | -8.54778 | 125.52447 | 30 ft | 2 kts | 213° |
| 2026-04-28 15:53 | -8.54767 | 125.52456 | 30 ft | 2 kts | 244° |
| 2026-04-28 15:54 | -8.54762 | 125.52469 | 30 ft | 2 kts | 274° |
| 2026-04-28 15:54 | -8.54763 | 125.52478 | 29 ft | 0 kts | 294° |
| 2026-04-28 15:56 | -8.54751 | 125.52449 | 31 ft | 11 kts | 294° |
| 2026-04-28 15:57 | -8.54702 | 125.52340 | 35 ft | 27 kts | 294° |
| 2026-04-28 15:57 | -8.54709 | 125.52175 | 34 ft | 24 kts | 258° |
| 2026-04-28 15:57 | -8.54751 | 125.52004 | 31 ft | 27 kts | 256° |
| 2026-04-28 15:57 | -8.54799 | 125.51813 | 29 ft | 29 kts | 256° |
| 2026-04-28 15:58 | -8.54846 | 125.51684 | 29 ft | 2 kts | 277° |
| 2026-04-28 15:58 | -8.54839 | 125.51680 | 29 ft | 1 kts | 324° |
| 2026-04-28 15:58 | -8.54834 | 125.51681 | 29 ft | 1 kts | 352° |
| 2026-04-28 15:58 | -8.54828 | 125.51686 | 29 ft | 2 kts | 40° |
| 2026-04-28 15:59 | -8.54789 | 125.51771 | 30 ft | 48 kts | 65° |
| 2026-04-28 15:59 | -8.54604 | 125.52425 | 37 ft | 143 kts | 79° |
| 2026-04-28 15:59 | -8.54388 | 125.53634 | 627 ft | 174 kts | 80° |
| 2026-04-28 15:59 | -8.54186 | 125.54674 | 2328 ft | 137 kts | 80° |
| 2026-04-28 16:00 | -8.54000 | 125.55586 | 3419 ft | 132 kts | 82° |
| 2026-04-28 16:00 | -8.53834 | 125.56511 | 3859 ft | 147 kts | 82° |
| 2026-04-28 16:00 | -8.53645 | 125.57609 | 4572 ft | 168 kts | 82° |
| 2026-04-28 16:00 | -8.53440 | 125.58785 | 5604 ft | 167 kts | 81° |
| 2026-04-28 16:01 | -8.53248 | 125.59882 | 6828 ft | 151 kts | 81° |
| 2026-04-28 16:01 | -8.53069 | 125.60894 | 7791 ft | 144 kts | 81° |
| 2026-04-28 16:01 | -8.52896 | 125.61884 | 8600 ft | 141 kts | 82° |
| 2026-04-28 16:01 | -8.52724 | 125.62864 | 9349 ft | 143 kts | 81° |
| 2026-04-28 16:02 | -8.52553 | 125.63839 | 10023 ft | 142 kts | 82° |
| 2026-04-28 16:02 | -8.52527 | 125.64841 | 10605 ft | 144 kts | 102° |
| 2026-04-28 16:02 | -8.52832 | 125.65789 | 11242 ft | 143 kts | 114° |
| 2026-04-28 16:02 | -8.53276 | 125.66694 | 11797 ft | 145 kts | 120° |
| 2026-04-28 16:03 | -8.53810 | 125.67613 | 12174 ft | 159 kts | 122° |
| 2026-04-28 16:03 | -8.54430 | 125.68614 | 12419 ft | 178 kts | 123° |
| 2026-04-28 16:03 | -8.55138 | 125.69742 | 12622 ft | 202 kts | 123° |
| 2026-04-28 16:03 | -8.55924 | 125.71009 | 12911 ft | 224 kts | 122° |
| 2026-04-28 16:04 | -8.56783 | 125.72416 | 13221 ft | 246 kts | 122° |
| 2026-04-28 16:04 | -8.57709 | 125.73954 | 13565 ft | 267 kts | 122° |
| 2026-04-28 16:04 | -8.58692 | 125.75599 | 13898 ft | 287 kts | 122° |
| 2026-04-28 16:04 | -8.59754 | 125.77384 | 14200 ft | 306 kts | 121° |
| 2026-04-28 16:05 | -8.60883 | 125.79280 | 14522 ft | 324 kts | 121° |
| 2026-04-28 16:05 | -8.62076 | 125.81283 | 14855 ft | 340 kts | 121° |
| 2026-04-28 16:05 | -8.63326 | 125.83380 | 15153 ft | 356 kts | 121° |
| 2026-04-28 16:05 | -8.64625 | 125.85563 | 15430 ft | 370 kts | 121° |
| 2026-04-28 16:06 | -8.65968 | 125.87821 | 15779 ft | 379 kts | 121° |
| 2026-04-28 16:06 | -8.67337 | 125.90124 | 16269 ft | 384 kts | 121° |
| 2026-04-28 16:06 | -8.68718 | 125.92442 | 16819 ft | 387 kts | 121° |
| 2026-04-28 16:06 | -8.70112 | 125.94785 | 17369 ft | 390 kts | 121° |
| 2026-04-28 16:07 | -8.71499 | 125.97113 | 17916 ft | 393 kts | 121° |
| 2026-04-28 16:07 | -8.72915 | 125.99489 | 18434 ft | 396 kts | 121° |
| 2026-04-28 16:07 | -8.75783 | 126.04306 | 19191 ft | 404 kts | 121° |
| 2026-04-28 16:08 | -8.77240 | 126.06754 | 19646 ft | 408 kts | 121° |
| 2026-04-28 16:08 | -8.78708 | 126.09221 | 20097 ft | 411 kts | 121° |
| 2026-04-28 16:08 | -8.80187 | 126.11708 | 20550 ft | 415 kts | 121° |
| 2026-04-28 16:09 | -8.83180 | 126.16742 | 21486 ft | 422 kts | 121° |
| 2026-04-28 16:09 | -8.84676 | 126.19260 | 21965 ft | 424 kts | 121° |
| 2026-04-28 16:09 | -8.86206 | 126.21834 | 22377 ft | 430 kts | 121° |
| 2026-04-28 16:10 | -8.89123 | 126.26743 | 23220 ft | 436 kts | 121° |
| 2026-04-28 16:10 | -8.90693 | 126.29386 | 23601 ft | 441 kts | 121° |
| 2026-04-28 16:10 | -8.93867 | 126.34731 | 24428 ft | 445 kts | 121° |
| 2026-04-28 16:11 | -8.97072 | 126.40130 | 25300 ft | 450 kts | 121° |
| 2026-04-28 16:11 | -9.00296 | 126.45563 | 26237 ft | 455 kts | 121° |
| 2026-04-28 16:12 | -9.03570 | 126.51084 | 27249 ft | 460 kts | 121° |
| 2026-04-28 16:12 | -9.05221 | 126.53868 | 27685 ft | 464 kts | 121° |
| 2026-04-28 16:13 | -9.08568 | 126.59516 | 28597 ft | 471 kts | 121° |
| 2026-04-28 16:13 | -9.10258 | 126.62369 | 29034 ft | 474 kts | 121° |
| 2026-04-28 16:13 | -9.13642 | 126.68083 | 30003 ft | 478 kts | 121° |
| 2026-04-28 16:14 | -9.17082 | 126.73893 | 30754 ft | 483 kts | 121° |
| 2026-04-28 16:14 | -9.20572 | 126.79790 | 31299 ft | 491 kts | 121° |
| 2026-04-28 16:15 | -9.24103 | 126.85760 | 31927 ft | 497 kts | 121° |
| 2026-04-28 16:15 | -9.25883 | 126.88770 | 32262 ft | 499 kts | 121° |
| 2026-04-28 16:15 | -9.27649 | 126.91758 | 32535 ft | 502 kts | 121° |
| 2026-04-28 16:16 | -9.31509 | 126.97655 | 33191 ft | 503 kts | 127° |
| 2026-04-28 16:16 | -9.33613 | 127.00497 | 33528 ft | 504 kts | 128° |
| 2026-04-28 16:17 | -9.37875 | 127.06126 | 34272 ft | 503 kts | 128° |
| 2026-04-28 16:17 | -9.40016 | 127.08932 | 34529 ft | 504 kts | 128° |
| 2026-04-28 16:17 | -9.42162 | 127.11745 | 34832 ft | 505 kts | 128° |
| 2026-04-28 16:17 | -9.44277 | 127.14520 | 35147 ft | 505 kts | 128° |
| 2026-04-28 16:18 | -9.46421 | 127.17340 | 35412 ft | 506 kts | 128° |
| 2026-04-28 16:18 | -9.48565 | 127.20162 | 35684 ft | 506 kts | 128° |
| 2026-04-28 16:18 | -9.50713 | 127.22992 | 35936 ft | 507 kts | 128° |
| 2026-04-28 16:18 | -9.52859 | 127.25822 | 36290 ft | 506 kts | 127° |
| 2026-04-28 16:19 | -9.55006 | 127.28653 | 36491 ft | 509 kts | 127° |
| 2026-04-28 16:19 | -9.57165 | 127.31502 | 36679 ft | 510 kts | 127° |
| 2026-04-28 16:19 | -9.59327 | 127.34355 | 36997 ft | 510 kts | 127° |
| 2026-04-28 16:19 | -9.61484 | 127.37200 | 37257 ft | 511 kts | 127° |
| 2026-04-28 16:20 | -9.63646 | 127.40055 | 37608 ft | 508 kts | 127° |
| 2026-04-28 16:20 | -9.65762 | 127.42847 | 38035 ft | 505 kts | 127° |
| 2026-04-28 16:20 | -9.70065 | 127.48530 | 38353 ft | 509 kts | 127° |
| 2026-04-28 16:21 | -9.74387 | 127.54239 | 38441 ft | 514 kts | 127° |
| 2026-04-28 16:21 | -9.78762 | 127.60023 | 38438 ft | 520 kts | 127° |
| 2026-04-28 16:22 | -9.83177 | 127.65862 | 38441 ft | 522 kts | 127° |
| 2026-04-28 16:22 | -9.87561 | 127.71662 | 38445 ft | 522 kts | 128° |
| 2026-04-28 16:23 | -9.91975 | 127.77506 | 38438 ft | 521 kts | 128° |
| 2026-04-28 16:23 | -9.96371 | 127.83327 | 38444 ft | 518 kts | 128° |
| 2026-04-28 16:24 | -10.00747 | 127.89126 | 38442 ft | 518 kts | 128° |
| 2026-04-28 16:24 | -10.05122 | 127.94926 | 38444 ft | 517 kts | 128° |
| 2026-04-28 16:25 | -10.09452 | 128.00669 | 38445 ft | 515 kts | 127° |
| 2026-04-28 16:25 | -10.13807 | 128.06449 | 38439 ft | 516 kts | 128° |
| 2026-04-28 16:26 | -10.18162 | 128.12231 | 38445 ft | 515 kts | 128° |
| 2026-04-28 16:26 | -10.22518 | 128.18019 | 38447 ft | 516 kts | 128° |
| 2026-04-28 16:27 | -10.26882 | 128.23818 | 38448 ft | 517 kts | 127° |
| 2026-04-28 16:28 | -10.33384 | 128.32466 | 38443 ft | 515 kts | 127° |
| 2026-04-28 16:28 | -10.37733 | 128.38255 | 38450 ft | 515 kts | 127° |
| 2026-04-28 16:29 | -10.44184 | 128.46845 | 38170 ft | 505 kts | 128° |
| 2026-04-28 16:30 | -10.50601 | 128.55396 | 38313 ft | 513 kts | 127° |
| 2026-04-28 16:30 | -10.54940 | 128.61182 | 38392 ft | 517 kts | 128° |
| 2026-04-28 16:31 | -10.59305 | 128.67005 | 38441 ft | 518 kts | 127° |
| 2026-04-28 16:31 | -10.63665 | 128.72827 | 38455 ft | 517 kts | 127° |